Time;durP1;ratioP1;P1;durP2;ratioP2;P2;SDS_P1;SDS_P2;PMS_P1;PMS_P2;Temp;Humidity;BMP_temperature;BMP_pressure;BME280_temperature;BME280_humidity;BME280_pressure;Samples;Min_cycle;Max_cycle;Signal;HPM_P1;HPM_P2
2022/01/23 00:00:49;;;;;;;2.08;1.42;;;6.70;99.90;;;;;;4892237;29;20071;-80
2022/01/23 00:03:18;;;;;;;2.40;2.22;;;6.70;99.90;;;;;;4907917;29;20055;-80
2022/01/23 00:05:45;;;;;;;1.30;1.20;;;6.70;99.90;;;;;;4908291;29;20075;-80
2022/01/23 00:08:13;;;;;;;2.25;1.23;;;6.70;99.90;;;;;;4909378;29;20044;-79
2022/01/23 00:10:39;;;;;;;1.05;1.02;;;6.70;99.90;;;;;;4909597;29;20043;-80
2022/01/23 00:18:21;;;;;;;3.10;1.33;;;6.70;99.90;;;;;;4923001;29;20082;-80
2022/01/23 00:20:49;;;;;;;1.27;1.17;;;6.70;99.90;;;;;;4920900;29;20083;-81
2022/01/23 00:23:31;;;;;;;1.63;1.23;;;6.70;99.90;;;;;;4929366;29;20051;-80
2022/01/23 00:31:26;;;;;;;1.85;1.65;;;6.70;99.90;;;;;;4911798;29;20059;-80
2022/01/23 00:33:54;;;;;;;0.90;0.90;;;6.70;99.90;;;;;;4926164;29;20094;-80
2022/01/23 00:36:24;;;;;;;2.10;1.67;;;6.70;99.90;;;;;;4934007;29;20047;-80
2022/01/23 00:38:49;;;;;;;1.13;1.02;;;6.70;99.90;;;;;;4941428;29;20172;-80
2022/01/23 00:41:15;;;;;;;1.40;1.35;;;6.60;99.90;;;;;;4926331;29;20445;-80
2022/01/23 00:43:43;;;;;;;4.32;1.17;;;6.70;99.90;;;;;;4927248;29;20047;-80
2022/01/23 00:51:32;;;;;;;4.28;2.08;;;6.70;99.90;;;;;;4926838;29;20576;-80
2022/01/23 00:54:00;;;;;;;1.23;1.08;;;6.70;99.90;;;;;;4939206;29;20055;-80
2022/01/23 00:56:26;;;;;;;1.45;1.42;;;6.60;99.90;;;;;;4908703;29;20058;-80
2022/01/23 00:58:52;;;;;;;1.58;1.00;;;6.60;99.90;;;;;;4908473;29;20056;-80
2022/01/23 01:01:18;;;;;;;3.42;1.60;;;6.60;99.90;;;;;;4939911;29;20522;-81
2022/01/23 01:03:44;;;;;;;2.22;1.65;;;6.60;99.90;;;;;;4942342;29;20462;-80
2022/01/23 01:06:10;;;;;;;2.53;2.28;;;6.60;99.90;;;;;;4908065;29;20056;-80
2022/01/23 01:08:36;;;;;;;10.15;2.70;;;6.60;99.90;;;;;;4892330;29;20043;-80
2022/01/23 01:11:33;;;;;;;2.17;1.98;;;6.60;99.90;;;;;;4908271;29;20120;-80
2022/01/23 01:33:42;;;;;;;1.63;1.52;;;6.50;99.90;;;;;;4908156;29;20058;-80
2022/01/23 01:35:51;;;;;;;2.50;2.30;;;6.50;99.90;;;;;;4899495;29;20062;-80
2022/01/23 01:38:16;;;;;;;3.20;1.63;;;6.50;99.90;;;;;;4908266;29;20122;-82
2022/01/23 01:40:42;;;;;;;1.13;1.05;;;6.50;99.90;;;;;;4908101;29;20118;-80
2022/01/23 01:43:08;;;;;;;1.77;1.67;;;6.50;99.90;;;;;;4924308;29;20043;-80
2022/01/23 01:45:34;;;;;;;4.13;2.10;;;6.50;99.90;;;;;;4906987;29;20067;-80
2022/01/23 01:48:01;;;;;;;1.48;1.38;;;6.50;99.90;;;;;;4907731;29;20060;-80
2022/01/23 01:50:29;;;;;;;1.73;1.42;;;6.50;99.90;;;;;;4906983;29;20047;-80
2022/01/23 01:52:55;;;;;;;0.93;0.93;;;6.50;99.90;;;;;;4924670;29;20051;-80
2022/01/23 01:55:28;;;;;;;1.40;1.30;;;6.50;99.90;;;;;;4906948;29;20055;-80
2022/01/23 01:58:01;;;;;;;15.02;1.60;;;6.50;99.90;;;;;;4891510;29;20048;-80
2022/01/23 02:08:24;;;;;;;1.73;1.63;;;6.50;99.90;;;;;;4906998;29;20566;-80
2022/01/23 02:10:58;;;;;;;8.88;3.22;;;6.50;99.90;;;;;;4919956;23;20051;-80
2022/01/23 02:13:51;;;;;;;0.73;0.70;;;6.50;99.90;;;;;;4926052;28;20102;-80
2022/01/23 02:24:36;;;;;;;1.23;1.23;;;6.40;99.90;;;;;;4942396;28;20055;-81
2022/01/23 02:56:54;;;;;;;1.50;1.40;;;6.40;99.90;;;;;;4926161;29;20074;-80
2022/01/23 02:59:25;;;;;;;1.50;1.38;;;6.40;99.90;;;;;;4925207;29;20564;-80
2022/01/23 03:04:33;;;;;;;0.60;0.60;;;6.40;99.90;;;;;;4941939;28;20407;-80
2022/01/23 03:15:13;;;;;;;2.22;1.10;;;6.40;99.90;;;;;;4943269;28;20058;-80
2022/01/23 03:28:38;;;;;;;0.80;0.80;;;6.40;99.90;;;;;;4942354;28;20051;-80
2022/01/23 03:33:32;;;;;;;2.83;1.23;;;6.40;99.90;;;;;;4942634;28;20619;-83
2022/01/23 03:35:57;;;;;;;0.77;0.77;;;6.40;99.90;;;;;;4946327;28;20043;-80
2022/01/23 03:38:23;;;;;;;0.20;0.20;;;6.40;99.90;;;;;;4929373;29;20717;-80
2022/01/23 03:40:49;;;;;;;0.70;0.70;;;6.40;99.90;;;;;;4945977;28;20043;-80
2022/01/23 03:43:15;;;;;;;1.15;1.10;;;6.40;99.90;;;;;;4929571;29;20178;-80
2022/01/23 03:50:48;;;;;;;1.55;0.95;;;6.40;99.90;;;;;;4944886;28;20417;-80
2022/01/23 03:53:14;;;;;;;0.75;0.75;;;6.40;99.90;;;;;;4929466;29;20039;-80
2022/01/23 03:55:40;;;;;;;0.30;0.30;;;6.40;99.90;;;;;;4928722;28;20081;-80
2022/01/23 03:58:06;;;;;;;5.47;1.52;;;6.40;99.90;;;;;;4946081;28;20059;-80
2022/01/23 04:00:32;;;;;;;1.92;1.23;;;6.30;99.90;;;;;;4946049;28;20039;-80
2022/01/23 04:02:58;;;;;;;0.35;0.35;;;6.30;99.90;;;;;;4928547;28;20047;-80
2022/01/23 04:05:24;;;;;;;0.55;0.55;;;6.30;99.90;;;;;;4927502;29;20328;-80
2022/01/23 04:07:50;;;;;;;2.00;0.88;;;6.30;99.90;;;;;;4929146;29;20036;-80
2022/01/23 04:10:18;;;;;;;1.05;0.98;;;6.30;99.90;;;;;;4945727;28;20581;-80
2022/01/23 04:33:59;;;;;;;3.30;1.63;;;6.30;99.90;;;;;;4942950;28;20520;-80
2022/01/23 04:48:27;;;;;;;7.60;1.95;;;6.30;99.90;;;;;;4945025;28;20073;-80
2022/01/23 05:01:15;;;;;;;3.75;2.55;;;6.30;99.90;;;;;;4944693;28;20074;-80
2022/01/23 05:06:29;;;;;;;4.82;2.47;;;6.30;99.90;;;;;;4927344;28;20061;-80
2022/01/23 05:08:54;;;;;;;1.67;1.58;;;6.30;99.90;;;;;;4911960;29;20055;-80
2022/01/23 05:11:20;;;;;;;3.00;2.00;;;6.30;99.90;;;;;;4928410;29;20067;-81
2022/01/23 05:13:46;;;;;;;2.90;2.17;;;6.30;99.90;;;;;;4908662;29;20110;-80
2022/01/23 05:16:12;;;;;;;1.80;1.67;;;6.30;99.90;;;;;;4926113;29;20184;-80
2022/01/23 05:18:39;;;;;;;2.45;2.13;;;6.20;99.90;;;;;;4907591;29;20051;-80
2022/01/23 05:23:54;;;;;;;0.90;0.88;;;6.20;99.90;;;;;;4890204;29;20433;-80
2022/01/23 05:26:20;;;;;;;1.17;1.10;;;6.20;99.90;;;;;;4908021;29;20134;-81
2022/01/23 05:28:45;;;;;;;1.95;0.98;;;6.30;99.90;;;;;;4909034;29;20051;-80
2022/01/23 05:31:11;;;;;;;0.63;0.63;;;6.30;99.90;;;;;;4907408;29;20047;-80
2022/01/23 05:33:37;;;;;;;4.00;1.73;;;6.20;99.90;;;;;;4924000;29;20044;-80
2022/01/23 05:36:04;;;;;;;1.38;1.27;;;6.20;99.90;;;;;;4908752;29;20059;-80
2022/01/23 05:38:30;;;;;;;2.70;1.88;;;6.30;99.90;;;;;;4907721;29;20178;-80
2022/01/23 05:40:57;;;;;;;1.65;1.55;;;6.20;99.90;;;;;;4907898;29;20096;-80
2022/01/23 05:43:24;;;;;;;1.38;1.27;;;6.30;99.90;;;;;;4925025;29;20044;-81
2022/01/23 05:45:50;;;;;;;2.00;1.77;;;6.30;99.90;;;;;;4907437;29;20056;-80
2022/01/23 05:48:16;;;;;;;0.70;0.70;;;6.30;99.90;;;;;;4907614;29;20048;-81
2022/01/23 05:50:43;;;;;;;0.70;0.70;;;6.30;99.90;;;;;;4907808;29;20043;-80
2022/01/23 05:53:09;;;;;;;1.05;1.05;;;6.30;99.90;;;;;;4908023;29;20054;-80
2022/01/23 05:55:34;;;;;;;0.60;0.60;;;6.30;99.90;;;;;;4924966;29;20040;-80
2022/01/23 05:58:00;;;;;;;1.48;1.38;;;6.30;99.90;;;;;;4906961;29;20043;-81
2022/01/23 06:00:25;;;;;;;0.55;0.55;;;6.30;99.90;;;;;;4922975;29;20047;-80
2022/01/23 06:02:52;;;;;;;1.88;0.88;;;6.30;99.90;;;;;;4923473;29;20051;-80
2022/01/23 06:05:18;;;;;;;0.75;0.65;;;6.30;99.90;;;;;;4923255;29;20054;-81
2022/01/23 06:07:43;;;;;;;1.73;1.42;;;6.30;99.90;;;;;;4908121;29;20520;-80
2022/01/23 06:10:19;;;;;;;2.35;1.75;;;6.30;99.90;;;;;;4930320;28;20421;-80
2022/01/23 06:12:44;;;;;;;0.90;0.90;;;6.30;99.90;;;;;;4927580;28;20089;-80
2022/01/23 06:15:10;;;;;;;1.25;0.82;;;6.30;99.90;;;;;;4943635;28;20071;-80
2022/01/23 06:17:36;;;;;;;1.35;1.30;;;6.30;99.90;;;;;;4925869;28;20085;-80
2022/01/23 06:20:02;;;;;;;4.47;1.02;;;6.30;99.90;;;;;;4943029;28;20050;-80
2022/01/23 06:22:27;;;;;;;5.47;1.95;;;6.30;99.90;;;;;;4925741;29;20727;-80
2022/01/23 06:24:53;;;;;;;1.30;1.20;;;6.30;99.90;;;;;;4925927;28;20122;-80
2022/01/23 06:27:19;;;;;;;0.95;0.95;;;6.30;99.90;;;;;;4925956;28;20039;-81
2022/01/23 06:29:45;;;;;;;0.60;0.60;;;6.30;99.90;;;;;;4943602;28;20050;-80
2022/01/23 06:32:11;;;;;;;1.20;1.17;;;6.30;99.90;;;;;;4943295;29;20425;-80
2022/01/23 06:34:37;;;;;;;1.42;1.33;;;6.30;99.90;;;;;;4940728;28;20057;-80
2022/01/23 06:37:03;;;;;;;1.27;1.17;;;6.30;99.90;;;;;;4943099;29;20046;-80
2022/01/23 06:39:29;;;;;;;0.60;0.60;;;6.30;99.90;;;;;;4942873;29;20443;-80
2022/01/23 06:41:54;;;;;;;1.65;1.55;;;6.30;99.90;;;;;;4941374;28;20584;-80
2022/01/23 06:44:21;;;;;;;1.58;1.48;;;6.30;99.90;;;;;;4942683;29;20055;-80
2022/01/23 06:46:47;;;;;;;1.55;1.45;;;6.30;99.90;;;;;;4942946;29;20490;-81
2022/01/23 06:49:13;;;;;;;1.88;1.35;;;6.30;99.90;;;;;;4942532;29;20047;-80
2022/01/23 06:51:39;;;;;;;0.82;0.82;;;6.30;99.90;;;;;;4941753;28;20395;-80
2022/01/23 06:54:05;;;;;;;1.08;0.82;;;6.30;99.90;;;;;;4941848;29;20537;-80
2022/01/23 06:56:31;;;;;;;2.42;1.10;;;6.30;99.90;;;;;;4942435;29;20051;-80
2022/01/23 06:58:56;;;;;;;0.68;0.68;;;6.30;99.90;;;;;;4925872;29;20043;-80
2022/01/23 07:01:22;;;;;;;0.80;0.80;;;6.30;99.90;;;;;;4925685;29;20055;-80
2022/01/23 07:03:48;;;;;;;1.10;1.02;;;6.30;99.90;;;;;;4941813;29;20035;-81
2022/01/23 07:06:14;;;;;;;0.57;0.57;;;6.30;99.90;;;;;;4943642;29;20043;-80
2022/01/23 07:08:39;;;;;;;0.88;0.88;;;6.30;99.90;;;;;;4942382;28;20055;-80
2022/01/23 07:11:05;;;;;;;1.58;1.52;;;6.30;99.90;;;;;;4942194;29;20051;-80
2022/01/23 07:13:30;;;;;;;0.85;0.85;;;6.30;99.90;;;;;;4942122;28;20058;-80
2022/01/23 07:15:56;;;;;;;2.33;2.08;;;6.30;99.90;;;;;;4942094;29;20177;-80
2022/01/23 07:18:21;;;;;;;2.22;2.03;;;6.30;99.90;;;;;;4940499;28;20089;-80
2022/01/23 07:20:48;;;;;;;18.10;1.88;;;6.30;99.90;;;;;;4942805;28;20106;-80
2022/01/23 07:23:20;;;;;;;1.30;1.20;;;6.30;99.90;;;;;;4924916;29;20050;-80
2022/01/23 07:25:46;;;;;;;1.08;1.08;;;6.30;99.90;;;;;;4925208;28;20059;-80
2022/01/23 07:28:15;;;;;;;1.08;1.08;;;6.30;99.90;;;;;;4942619;28;20050;-80
2022/01/23 07:30:51;;;;;;;2.22;0.95;;;6.30;99.90;;;;;;4941420;29;20085;-80
2022/01/23 07:33:16;;;;;;;1.85;1.48;;;6.30;99.90;;;;;;4889813;29;20126;-81
2022/01/23 07:35:42;;;;;;;2.72;1.58;;;6.30;99.90;;;;;;4923014;29;20191;-80
2022/01/23 07:38:09;;;;;;;1.25;1.25;;;6.30;99.90;;;;;;4911682;29;20046;-80
2022/01/23 07:40:35;;;;;;;1.40;0.95;;;6.30;99.90;;;;;;4924948;29;20051;-81
2022/01/23 07:43:01;;;;;;;1.70;1.60;;;6.30;99.90;;;;;;4940874;29;20035;-78
2022/01/23 07:45:26;;;;;;;2.17;1.98;;;6.30;99.90;;;;;;4923797;29;20062;-78
2022/01/23 07:47:52;;;;;;;1.17;1.05;;;6.30;99.90;;;;;;4924299;29;20051;-78
2022/01/23 07:50:18;;;;;;;1.15;1.10;;;6.30;99.90;;;;;;4941792;28;20413;-78
2022/01/23 07:52:43;;;;;;;1.20;1.13;;;6.30;99.90;;;;;;4909218;29;20533;-78
2022/01/23 07:55:12;;;;;;;1.50;1.15;;;6.30;99.90;;;;;;4925294;29;20039;-77
2022/01/23 07:57:39;;;;;;;0.63;0.63;;;6.30;99.90;;;;;;4924968;29;20043;-78
2022/01/23 08:00:07;;;;;;;2.45;1.58;;;6.30;99.90;;;;;;4941932;28;20102;-77
2022/01/23 08:02:33;;;;;;;1.90;1.80;;;6.30;99.90;;;;;;4941850;28;20043;-80
2022/01/23 08:04:58;;;;;;;2.58;1.55;;;6.30;99.90;;;;;;4923421;29;20050;-76
2022/01/23 08:09:57;;;;;;;3.13;1.63;;;6.30;99.90;;;;;;4933968;29;20411;-79
2022/01/23 08:12:26;;;;;;;1.17;1.10;;;6.30;99.90;;;;;;4937761;29;20047;-79
2022/01/23 08:14:52;;;;;;;2.05;1.67;;;6.30;99.90;;;;;;4936631;28;20078;-79
2022/01/23 08:17:19;;;;;;;2.10;1.80;;;6.30;99.90;;;;;;4939943;29;20063;-79
2022/01/23 08:19:47;;;;;;;2.65;2.42;;;6.30;99.90;;;;;;4939534;28;20051;-79
2022/01/23 08:22:13;;;;;;;2.65;2.45;;;6.40;99.90;;;;;;4926352;29;20261;-79
2022/01/23 08:24:38;;;;;;;1.98;1.40;;;6.30;99.90;;;;;;4926981;29;20059;-79
2022/01/23 08:27:04;;;;;;;3.25;2.95;;;6.30;99.90;;;;;;4926362;29;20051;-79
2022/01/23 08:29:30;;;;;;;15.30;2.65;;;6.40;99.90;;;;;;4926464;29;20043;-79
2022/01/23 08:31:55;;;;;;;3.45;2.60;;;6.40;99.90;;;;;;4927124;29;20047;-79
2022/01/23 08:34:21;;;;;;;2.20;2.03;;;6.40;99.90;;;;;;4925420;29;20387;-79
2022/01/23 08:36:46;;;;;;;4.32;2.53;;;6.40;99.90;;;;;;4927191;29;20047;-79
2022/01/23 08:39:12;;;;;;;3.25;3.05;;;6.40;99.90;;;;;;4943678;29;20349;-79
2022/01/23 08:41:50;;;;;;;2.75;2.55;;;6.40;99.90;;;;;;4943661;29;20050;-79
2022/01/23 08:44:24;;;;;;;2.28;2.08;;;6.40;99.90;;;;;;4926556;29;20047;-79
2022/01/23 08:46:50;;;;;;;2.28;2.08;;;6.40;99.90;;;;;;4926648;29;20134;-79
2022/01/23 08:49:18;;;;;;;1.20;1.10;;;6.40;99.90;;;;;;4943281;29;20178;-79
2022/01/23 08:51:44;;;;;;;3.53;3.25;;;6.40;99.90;;;;;;4926648;29;20106;-79
2022/01/23 08:54:10;;;;;;;3.33;2.95;;;6.40;99.90;;;;;;4926406;29;20051;-79
2022/01/23 08:56:36;;;;;;;2.78;2.58;;;6.40;99.90;;;;;;4925862;29;21324;-79
2022/01/23 08:59:03;;;;;;;15.57;3.28;;;6.40;99.90;;;;;;4942928;29;20226;-79
2022/01/23 09:01:28;;;;;;;3.42;3.15;;;6.40;99.90;;;;;;4943140;29;20529;-79
2022/01/23 09:03:54;;;;;;;3.25;3.05;;;6.40;99.90;;;;;;4925247;29;20039;-79
2022/01/23 09:06:20;;;;;;;17.27;1.60;;;6.50;99.90;;;;;;4926150;29;20537;-79
2022/01/23 09:08:46;;;;;;;3.35;2.58;;;6.50;99.90;;;;;;4942680;29;20043;-79
2022/01/23 09:16:16;;;;;;;3.47;3.15;;;6.50;99.90;;;;;;4942984;28;20095;-79
2022/01/23 09:18:42;;;;;;;2.22;2.10;;;6.50;99.90;;;;;;4925316;28;20039;-79
2022/01/23 09:21:07;;;;;;;4.03;2.55;;;6.50;99.90;;;;;;4925859;28;20055;-79
2022/01/23 09:23:34;;;;;;;2.65;2.45;;;6.50;99.90;;;;;;4925835;28;20050;-79
2022/01/23 09:26:06;;;;;;;2.83;2.47;;;6.50;99.90;;;;;;4925464;28;20054;-79
2022/01/23 09:28:33;;;;;;;;;;;6.50;99.90;;;;;;4943385;28;20046;-79
2022/01/23 09:31:00;;;;;;;4.72;3.55;;;6.50;99.90;;;;;;4941311;28;20480;-79
2022/01/23 09:33:26;;;;;;;3.05;2.38;;;6.50;99.90;;;;;;4942313;28;20043;-79
2022/01/23 09:35:51;;;;;;;4.28;2.95;;;6.50;99.90;;;;;;4942518;28;20040;-79
2022/01/23 09:38:17;;;;;;;2.40;2.08;;;6.50;99.90;;;;;;4942491;28;20047;-79
2022/01/23 09:40:44;;;;;;;2.53;2.33;;;6.60;99.90;;;;;;4943104;28;20291;-79
2022/01/23 09:43:16;;;;;;;2.42;2.05;;;6.60;99.90;;;;;;4925561;28;20054;-79
2022/01/23 09:45:45;;;;;;;1.95;1.85;;;6.50;99.90;;;;;;4925512;28;20051;-79
2022/01/23 09:48:12;;;;;;;5.13;2.70;;;6.60;99.90;;;;;;4925062;28;20058;-79
2022/01/23 09:50:38;;;;;;;2.38;2.03;;;6.60;99.90;;;;;;4924775;28;20035;-79
2022/01/23 09:53:05;;;;;;;1.73;1.63;;;6.50;99.90;;;;;;4942510;28;20057;-79
2022/01/23 09:55:33;;;;;;;2.35;2.25;;;6.60;99.90;;;;;;4942073;28;20039;-79
2022/01/23 09:57:59;;;;;;;2.78;2.53;;;6.60;99.90;;;;;;4942238;28;20141;-79
2022/01/23 10:00:28;;;;;;;2.03;1.92;;;6.60;99.90;;;;;;4909485;28;20047;-79
2022/01/23 10:02:56;;;;;;;7.93;2.70;;;6.60;99.90;;;;;;4923827;28;20109;-79
2022/01/23 10:05:22;;;;;;;3.15;2.88;;;6.60;99.90;;;;;;4942133;28;20513;-79
2022/01/23 10:07:48;;;;;;;22.15;2.65;;;6.70;99.90;;;;;;4941682;28;20047;-79
2022/01/23 10:10:20;;;;;;;1.88;1.77;;;6.60;99.90;;;;;;4942770;28;20051;-79
2022/01/23 10:12:50;;;;;;;4.03;2.47;;;6.60;99.90;;;;;;4917624;28;20054;-79
2022/01/23 10:15:17;;;;;;;2.33;2.22;;;6.60;99.90;;;;;;4942389;28;20498;-79
2022/01/23 10:17:42;;;;;;;4.60;3.22;;;6.60;99.90;;;;;;4924432;29;20055;-79
2022/01/23 10:20:11;;;;;;;2.60;2.28;;;6.70;99.90;;;;;;4924777;29;20039;-79
2022/01/23 10:22:36;;;;;;;5.07;4.07;;;6.70;99.90;;;;;;4942232;28;20399;-79
2022/01/23 10:25:14;;;;;;;8.05;3.72;;;6.60;99.90;;;;;;4941876;28;20054;-79
2022/01/23 10:28:05;;;;;;;3.22;3.03;;;6.60;99.90;;;;;;4924384;28;20077;-79
2022/01/23 10:30:47;;;;;;;2.75;2.55;;;6.70;99.90;;;;;;4940049;28;20058;-79
2022/01/23 10:33:19;;;;;;;3.80;2.65;;;6.70;99.90;;;;;;4923828;28;20505;-79
2022/01/23 10:36:08;;;;;;;7.68;3.35;;;6.70;99.90;;;;;;4924495;28;20073;-79
2022/01/23 10:38:57;;;;;;;6.32;3.00;;;6.70;99.90;;;;;;4940928;28;20062;-79
2022/01/23 10:41:43;;;;;;;9.73;3.35;;;6.70;99.90;;;;;;4940584;28;20293;-79
2022/01/23 10:49:47;;;;;;;2.78;2.58;;;6.80;99.90;;;;;;4925043;28;20062;-79
2022/01/23 10:52:47;;;;;;;6.35;4.78;;;6.70;99.90;;;;;;4924562;28;20431;-79
2022/01/23 10:55:13;;;;;;;5.22;4.75;;;6.70;99.90;;;;;;4884477;28;20552;-79
2022/01/23 10:57:41;;;;;;;3.42;2.47;;;6.80;99.90;;;;;;4941169;28;20039;-79
2022/01/23 11:00:29;;;;;;;3.25;2.95;;;6.80;99.90;;;;;;4940602;28;20540;-79
2022/01/23 11:02:56;;;;;;;3.00;2.80;;;6.80;99.90;;;;;;4922319;29;20134;-79
2022/01/23 11:05:35;;;;;;;2.55;2.35;;;6.80;99.90;;;;;;4940954;28;20043;-79
2022/01/23 11:08:01;;;;;;;3.40;3.10;;;6.80;99.90;;;;;;4940848;28;20047;-79
2022/01/23 11:10:27;;;;;;;4.30;3.03;;;6.80;99.90;;;;;;4941241;28;20434;-79
2022/01/23 11:18:15;;;;;;;4.75;3.55;;;6.80;99.90;;;;;;4940561;28;20058;-79
2022/01/23 11:20:49;;;;;;;7.88;4.55;;;6.90;99.90;;;;;;4924397;28;20077;-79
2022/01/23 11:23:27;;;;;;;3.83;3.20;;;6.90;99.90;;;;;;4941399;28;20047;-79
2022/01/23 11:25:55;;;;;;;2.58;2.40;;;6.90;99.90;;;;;;4923638;28;20085;-79
2022/01/23 11:28:28;;;;;;;4.97;2.90;;;6.90;99.90;;;;;;4923643;29;20699;-79
2022/01/23 11:30:54;;;;;;;2.72;2.42;;;6.90;99.90;;;;;;4941371;28;20130;-79
2022/01/23 11:33:20;;;;;;;3.53;2.53;;;6.90;99.90;;;;;;4922333;28;20140;-79
2022/01/23 11:35:47;;;;;;;2.65;2.45;;;6.90;99.90;;;;;;4940096;28;20070;-79
2022/01/23 11:38:17;;;;;;;2.67;2.47;;;6.90;99.90;;;;;;4941389;28;20477;-79
2022/01/23 11:54:47;;;;;;;2.13;2.03;;;7.00;99.90;;;;;;4939842;28;20058;-79
2022/01/23 11:57:31;;;;;;;2.85;2.45;;;7.00;99.90;;;;;;4928029;28;20502;-79
2022/01/23 11:59:59;;;;;;;6.18;2.92;;;7.00;99.90;;;;;;4927632;28;20055;-79
2022/01/23 12:02:36;;;;;;;3.60;3.08;;;7.00;99.90;;;;;;4943283;28;20461;-79
2022/01/23 12:05:16;;;;;;;1.90;1.75;;;7.00;99.90;;;;;;4944730;28;20122;-79
2022/01/23 12:07:43;;;;;;;2.50;2.30;;;7.10;99.90;;;;;;4927383;28;20043;-79
2022/01/23 12:10:31;;;;;;;1.98;1.88;;;7.00;99.90;;;;;;4927104;28;20055;-79
2022/01/23 12:13:54;;;;;;;1.48;1.38;;;7.00;99.90;;;;;;4921552;28;20044;-79
2022/01/23 12:16:21;;;;;;;2.72;2.53;;;7.10;99.90;;;;;;4926222;28;20077;-79
2022/01/23 12:18:51;;;;;;;12.52;2.92;;;7.10;99.90;;;;;;4918782;28;20054;-79
2022/01/23 12:21:28;;;;;;;2.42;2.28;;;7.10;99.90;;;;;;4944202;28;20497;-79
2022/01/23 12:24:02;;;;;;;2.75;2.55;;;7.10;99.90;;;;;;4944751;28;20401;-79
2022/01/23 12:26:27;;;;;;;3.67;2.58;;;7.10;99.90;;;;;;4943772;28;20047;-79
2022/01/23 12:28:53;;;;;;;2.15;2.05;;;7.10;99.90;;;;;;4927166;28;20477;-79
2022/01/23 12:31:24;;;;;;;5.13;2.60;;;7.10;99.90;;;;;;4943281;28;20040;-79
2022/01/23 12:34:00;;;;;;;2.20;2.10;;;7.10;99.90;;;;;;4943114;28;20059;-79
2022/01/23 12:36:32;;;;;;;2.67;2.42;;;7.10;99.90;;;;;;4943576;28;20047;-80
2022/01/23 12:39:16;;;;;;;1.65;1.58;;;7.10;99.90;;;;;;4943771;28;20039;-79
2022/01/23 12:41:51;;;;;;;2.28;2.08;;;7.20;99.90;;;;;;4944227;28;20208;-79
2022/01/23 12:44:22;;;;;;;2.25;0.88;;;7.20;99.90;;;;;;4926979;29;20047;-79
2022/01/23 12:47:03;;;;;;;2.17;1.93;;;7.10;99.90;;;;;;4926346;28;20061;-79
2022/01/23 12:49:31;;;;;;;2.28;2.17;;;7.20;99.90;;;;;;4925739;28;20291;-79
2022/01/23 12:52:05;;;;;;;3.58;2.38;;;7.20;99.90;;;;;;4943790;28;20039;-79
2022/01/23 12:54:32;;;;;;;1.73;1.63;;;7.20;99.90;;;;;;4926674;28;20453;-79
2022/01/23 12:57:06;;;;;;;2.70;2.50;;;7.20;99.90;;;;;;4943615;28;20196;-79
2022/01/23 12:59:34;;;;;;;3.05;2.58;;;7.20;99.90;;;;;;4942892;28;20137;-79
2022/01/23 13:02:06;;;;;;;2.28;2.08;;;7.20;99.90;;;;;;4942792;28;20508;-79
2022/01/23 13:04:34;;;;;;;2.53;2.33;;;7.20;99.90;;;;;;4942686;28;20039;-79
2022/01/23 13:07:09;;;;;;;4.63;1.80;;;7.20;99.90;;;;;;4943378;28;20287;-80
2022/01/23 13:12:26;;;;;;;1.48;1.40;;;7.20;99.90;;;;;;4942601;28;20049;-79
2022/01/23 13:15:12;;;;;;;3.13;2.85;;;7.20;99.90;;;;;;4925937;28;20055;-79
2022/01/23 13:31:15;;;;;;;2.58;2.38;;;7.20;99.90;;;;;;4941558;28;20051;-80
2022/01/23 13:33:41;;;;;;;3.10;2.90;;;7.20;99.90;;;;;;4942287;28;20149;-79
2022/01/23 13:36:11;;;;;;;3.03;1.95;;;7.20;99.90;;;;;;4941666;28;20480;-79
2022/01/23 13:38:38;;;;;;;5.07;2.40;;;7.20;99.90;;;;;;4943094;28;20053;-79
2022/01/23 13:41:14;;;;;;;1.83;1.73;;;7.20;99.90;;;;;;4942364;28;20081;-79
2022/01/23 13:50:47;;;;;;;3.30;2.28;;;7.20;99.90;;;;;;4941009;28;20086;-79
2022/01/23 13:52:53;;;;;;;2.65;2.45;;;7.20;99.90;;;;;;4925221;29;20058;-79
2022/01/23 13:58:29;;;;;;;3.30;1.75;;;7.20;99.90;;;;;;4941164;28;20047;-79
2022/01/23 14:00:58;;;;;;;2.60;2.40;;;7.20;99.90;;;;;;4924813;28;20050;-79
2022/01/23 14:03:25;;;;;;;1.65;1.55;;;7.20;99.90;;;;;;4940841;28;20578;-79
2022/01/23 14:05:51;;;;;;;1.70;1.60;;;7.20;99.90;;;;;;4942127;28;20055;-79
2022/01/23 14:08:18;;;;;;;21.73;2.50;;;7.20;99.90;;;;;;4942209;28;20056;-79
2022/01/23 14:10:43;;;;;;;5.72;2.35;;;7.20;99.90;;;;;;4925369;28;20066;-79
2022/01/23 14:13:11;;;;;;;5.63;2.22;;;7.20;99.90;;;;;;4942541;28;20047;-79
2022/01/23 14:15:45;;;;;;;3.83;2.42;;;7.20;99.90;;;;;;4941754;28;20229;-80
2022/01/23 14:18:13;;;;;;;1.63;1.52;;;7.20;99.90;;;;;;4940221;28;20134;-79
2022/01/23 14:20:43;;;;;;;2.38;2.10;;;7.20;99.90;;;;;;4924575;28;20040;-79
2022/01/23 14:23:16;;;;;;;3.50;3.00;;;7.30;99.90;;;;;;4941582;28;20557;-79
2022/01/23 14:25:50;;;;;;;2.67;2.17;;;7.20;99.90;;;;;;4925439;29;20055;-79
2022/01/23 14:28:22;;;;;;;6.95;2.63;;;7.20;99.90;;;;;;4924987;28;20047;-79
2022/01/23 14:30:50;;;;;;;5.68;2.58;;;7.20;99.90;;;;;;4941708;28;20035;-79
2022/01/23 14:33:23;;;;;;;2.78;2.58;;;7.20;99.90;;;;;;4923940;28;20055;-79
2022/01/23 14:35:50;;;;;;;2.55;2.35;;;7.30;99.90;;;;;;4942237;28;20148;-79
2022/01/23 14:38:27;;;;;;;2.83;2.45;;;7.20;99.90;;;;;;4941779;28;20043;-79
2022/01/23 14:41:03;;;;;;;2.65;2.25;;;7.20;99.90;;;;;;4941507;28;20082;-79
2022/01/23 14:43:31;;;;;;;2.60;2.38;;;7.30;99.90;;;;;;4941255;28;20517;-79
2022/01/23 14:45:57;;;;;;;3.30;3.00;;;7.20;99.90;;;;;;4923945;28;20077;-79
2022/01/23 14:48:24;;;;;;;2.30;1.85;;;7.30;99.90;;;;;;4941017;28;20042;-79
2022/01/23 14:50:52;;;;;;;1.67;1.58;;;7.20;99.90;;;;;;4940857;28;20481;-79
2022/01/23 14:53:22;;;;;;;3.55;2.47;;;7.30;99.90;;;;;;4941609;28;20043;-79
2022/01/23 14:55:51;;;;;;;2.58;2.05;;;7.30;99.90;;;;;;4923726;28;20054;-79
2022/01/23 14:58:21;;;;;;;2.42;2.22;;;7.20;99.90;;;;;;4941298;28;20039;-79
2022/01/23 15:00:49;;;;;;;2.67;2.42;;;7.20;99.90;;;;;;4923940;28;20047;-79
2022/01/23 15:03:15;;;;;;;2.53;2.20;;;7.20;99.90;;;;;;4923922;28;20051;-79
2022/01/23 15:05:41;;;;;;;2.28;2.00;;;7.20;99.90;;;;;;4923500;28;20070;-79
2022/01/23 15:08:08;;;;;;;3.08;1.77;;;7.30;99.90;;;;;;4941590;28;20110;-79
2022/01/23 15:10:38;;;;;;;2.67;2.47;;;7.20;99.90;;;;;;4940560;28;20067;-79
2022/01/23 15:13:05;;;;;;;4.72;2.00;;;7.20;99.90;;;;;;4939950;28;20101;-79
2022/01/23 15:15:31;;;;;;;1.83;1.73;;;7.20;99.90;;;;;;4923701;28;20182;-79
2022/01/23 15:17:57;;;;;;;3.13;2.13;;;7.20;99.90;;;;;;4940482;28;20050;-79
2022/01/23 15:20:23;;;;;;;1.83;1.73;;;7.20;99.90;;;;;;4924012;29;20043;-79
2022/01/23 15:22:48;;;;;;;2.13;2.03;;;7.20;99.90;;;;;;4940911;28;20046;-80
2022/01/23 15:25:15;;;;;;;1.92;1.70;;;7.20;99.90;;;;;;4941665;28;20039;-79
2022/01/23 15:27:42;;;;;;;5.20;2.25;;;7.20;99.90;;;;;;4924014;28;20153;-79
2022/01/23 15:30:11;;;;;;;4.22;3.20;;;7.20;99.90;;;;;;4944540;28;20035;-80
2022/01/23 15:32:37;;;;;;;3.20;2.75;;;7.20;99.90;;;;;;4943723;28;20222;-79
2022/01/23 15:35:04;;;;;;;4.35;1.98;;;7.20;99.90;;;;;;4945244;28;20125;-80
2022/01/23 15:37:30;;;;;;;6.57;2.47;;;7.10;99.90;;;;;;4926943;28;20091;-80
2022/01/23 15:39:55;;;;;;;2.78;1.67;;;7.20;99.90;;;;;;4945161;28;20062;-79
2022/01/23 15:42:21;;;;;;;2.17;2.05;;;7.10;99.90;;;;;;4927410;28;20211;-80
2022/01/23 15:44:47;;;;;;;2.25;1.83;;;7.10;99.90;;;;;;4944677;28;20043;-79
2022/01/23 15:47:13;;;;;;;1.58;1.52;;;7.10;99.90;;;;;;4944650;28;20126;-79
2022/01/23 15:49:38;;;;;;;7.28;2.25;;;7.10;99.90;;;;;;4944274;28;20078;-79
2022/01/23 15:52:04;;;;;;;2.47;1.73;;;7.10;99.90;;;;;;4944395;28;20054;-79
2022/01/23 15:54:30;;;;;;;2.78;1.55;;;7.10;99.90;;;;;;4944786;28;20047;-79
2022/01/23 15:56:57;;;;;;;1.90;1.80;;;7.10;99.90;;;;;;4944334;28;20335;-79
2022/01/23 15:59:23;;;;;;;1.45;1.35;;;7.10;99.90;;;;;;4944556;28;20183;-79
2022/01/23 16:01:50;;;;;;;3.25;2.03;;;7.10;99.90;;;;;;4943671;28;20518;-79
2022/01/23 16:04:17;;;;;;;2.20;1.98;;;7.00;99.90;;;;;;4944388;28;20043;-79
2022/01/23 16:06:43;;;;;;;1.23;1.13;;;7.10;99.90;;;;;;4945230;28;20050;-79
2022/01/23 16:09:08;;;;;;;6.50;2.55;;;7.10;99.90;;;;;;4943656;28;20035;-79
2022/01/23 16:11:34;;;;;;;3.60;1.95;;;7.00;99.90;;;;;;4944177;28;20069;-79
2022/01/23 16:14:00;;;;;;;2.85;2.65;;;7.10;99.90;;;;;;4944212;28;20114;-80
2022/01/23 16:16:26;;;;;;;4.13;2.20;;;7.10;99.90;;;;;;4942866;28;20047;-79
2022/01/23 16:18:52;;;;;;;1.63;1.52;;;7.00;99.90;;;;;;4945148;28;20430;-78
2022/01/23 16:21:18;;;;;;;4.25;2.97;;;7.00;99.90;;;;;;4945286;28;20039;-79
2022/01/23 16:24:00;;;;;;;4.07;2.67;;;7.00;99.90;;;;;;4922254;29;20051;-88
2022/01/23 16:32:06;;;;;;;3.83;2.33;;;7.00;99.90;;;;;;4976101;23;20285;-89
2022/01/23 16:34:52;;;;;;;3.50;2.88;;;7.00;99.90;;;;;;4939814;28;20054;-96
2022/01/23 16:37:27;;;;;;;9.27;3.38;;;7.00;99.90;;;;;;4929794;28;20125;-91
2022/01/23 16:39:56;;;;;;;3.72;2.40;;;7.00;99.90;;;;;;4971052;28;20088;-89
2022/01/23 16:46:05;;;;;;;3.03;2.78;;;7.00;99.90;;;;;;4965625;28;20622;-79
2022/01/23 16:48:31;;;;;;;8.93;2.95;;;6.90;99.90;;;;;;4974821;28;20066;-79
2022/01/23 16:50:59;;;;;;;1.42;1.33;;;6.90;99.90;;;;;;4965939;28;20051;-79
2022/01/23 16:53:26;;;;;;;2.67;2.42;;;6.90;99.90;;;;;;4989269;28;20046;-79